sensor_id;sensor_type;location;lat;lon;timestamp;pressure;altitude;pressure_sealevel;temperature;humidity
77207;BME280;66190;50.708;7.906;2023-04-19T00:00:12;97216.28;;;8.85;81.22
77207;BME280;66190;50.708;7.906;2023-04-19T00:02:38;97214.28;;;8.87;81.35
77207;BME280;66190;50.708;7.906;2023-04-19T00:05:06;97210.94;;;8.85;81.36
77207;BME280;66190;50.708;7.906;2023-04-19T00:07:31;97207.41;;;8.84;81.18
77207;BME280;66190;50.708;7.906;2023-04-19T00:09:57;97204.88;;;8.83;81.73
77207;BME280;66190;50.708;7.906;2023-04-19T00:12:22;97203.22;;;8.82;81.72
77207;BME280;66190;50.708;7.906;2023-04-19T00:14:47;97198.34;;;8.85;81.74
77207;BME280;66190;50.708;7.906;2023-04-19T00:17:13;97195.84;;;8.84;81.36
77207;BME280;66190;50.708;7.906;2023-04-19T00:19:38;97193.34;;;8.82;81.77
77207;BME280;66190;50.708;7.906;2023-04-19T00:22:03;97193.47;;;8.89;81.29
77207;BME280;66190;50.708;7.906;2023-04-19T00:24:29;97191.97;;;8.86;81.48
77207;BME280;66190;50.708;7.906;2023-04-19T00:26:55;97189.94;;;8.88;81.42
77207;BME280;66190;50.708;7.906;2023-04-19T00:29:21;97183.72;;;8.88;81.66
77207;BME280;66190;50.708;7.906;2023-04-19T00:31:47;97178.72;;;8.85;81.75
77207;BME280;66190;50.708;7.906;2023-04-19T00:34:12;97185.13;;;8.84;81.60
77207;BME280;66190;50.708;7.906;2023-04-19T00:36:37;97183.13;;;8.78;82.03
77207;BME280;66190;50.708;7.906;2023-04-19T00:39:03;97184.31;;;8.75;82.06
77207;BME280;66190;50.708;7.906;2023-04-19T00:41:28;97177.25;;;8.74;81.75
77207;BME280;66190;50.708;7.906;2023-04-19T00:43:53;97178.94;;;8.75;81.92
77207;BME280;66190;50.708;7.906;2023-04-19T00:46:19;97170.91;;;8.75;81.80
77207;BME280;66190;50.708;7.906;2023-04-19T00:48:46;97173.09;;;8.72;81.87
77207;BME280;66190;50.708;7.906;2023-04-19T00:51:12;97162.53;;;8.70;82.34
77207;BME280;66190;50.708;7.906;2023-04-19T00:53:39;97171.06;;;8.74;81.99
77207;BME280;66190;50.708;7.906;2023-04-19T00:56:05;97170.06;;;8.75;82.01
77207;BME280;66190;50.708;7.906;2023-04-19T00:58:31;97166.88;;;8.71;82.10
77207;BME280;66190;50.708;7.906;2023-04-19T01:00:56;97163.53;;;8.69;82.07
77207;BME280;66190;50.708;7.906;2023-04-19T01:03:22;97165.72;;;8.66;82.20
77207;BME280;66190;50.708;7.906;2023-04-19T01:05:48;97164.38;;;8.62;82.49
77207;BME280;66190;50.708;7.906;2023-04-19T01:08:14;97166.44;;;8.60;82.81
77207;BME280;66190;50.708;7.906;2023-04-19T01:10:39;97164.06;;;8.65;82.79
77207;BME280;66190;50.708;7.906;2023-04-19T01:13:05;97155.34;;;8.63;82.75
77207;BME280;66190;50.708;7.906;2023-04-19T01:15:30;97150.97;;;8.62;83.08
77207;BME280;66190;50.708;7.906;2023-04-19T01:17:56;97165.06;;;8.64;82.82
77207;BME280;66190;50.708;7.906;2023-04-19T01:20:21;97163.03;;;8.66;83.44
77207;BME280;66190;50.708;7.906;2023-04-19T01:22:47;97163.72;;;8.68;82.96
77207;BME280;66190;50.708;7.906;2023-04-19T01:25:12;97162.34;;;8.72;82.88
77207;BME280;66190;50.708;7.906;2023-04-19T01:27:38;97160.84;;;8.69;82.94
77207;BME280;66190;50.708;7.906;2023-04-19T01:30:04;97158.84;;;8.71;82.89
77207;BME280;66190;50.708;7.906;2023-04-19T01:32:30;97153.97;;;8.75;82.95
77207;BME280;66190;50.708;7.906;2023-04-19T01:34:55;97153.09;;;8.74;82.90
77207;BME280;66190;50.708;7.906;2023-04-19T01:37:20;97153.78;;;8.76;82.77
77207;BME280;66190;50.708;7.906;2023-04-19T01:39:46;97150.44;;;8.74;83.11
77207;BME280;66190;50.708;7.906;2023-04-19T01:42:11;97146.25;;;8.72;83.08
77207;BME280;66190;50.708;7.906;2023-04-19T01:44:37;97144.56;;;8.71;83.08
77207;BME280;66190;50.708;7.906;2023-04-19T01:47:03;97149.63;;;8.74;83.19
77207;BME280;66190;50.708;7.906;2023-04-19T01:49:28;97147.75;;;8.74;83.30
77207;BME280;66190;50.708;7.906;2023-04-19T01:51:54;97140.41;;;8.68;83.51
77207;BME280;66190;50.708;7.906;2023-04-19T01:54:19;97135.16;;;8.75;83.46
77207;BME280;66190;50.708;7.906;2023-04-19T01:56:45;97134.00;;;8.77;82.98
77207;BME280;66190;50.708;7.906;2023-04-19T01:59:10;97140.53;;;8.75;83.31
77207;BME280;66190;50.708;7.906;2023-04-19T02:01:35;97133.81;;;8.79;83.50
77207;BME280;66190;50.708;7.906;2023-04-19T02:04:01;97125.78;;;8.79;83.29
77207;BME280;66190;50.708;7.906;2023-04-19T02:06:27;97134.47;;;8.81;83.27
77207;BME280;66190;50.708;7.906;2023-04-19T02:08:52;97141.22;;;8.77;83.68
77207;BME280;66190;50.708;7.906;2023-04-19T02:11:18;97126.09;;;8.76;83.79
77207;BME280;66190;50.708;7.906;2023-04-19T02:13:43;97127.81;;;8.69;84.13
77207;BME280;66190;50.708;7.906;2023-04-19T02:16:09;97122.94;;;8.72;83.94
77207;BME280;66190;50.708;7.906;2023-04-19T02:18:35;97119.75;;;8.69;84.33
77207;BME280;66190;50.708;7.906;2023-04-19T02:21:03;97122.13;;;8.64;84.78
77207;BME280;66190;50.708;7.906;2023-04-19T02:23:29;97125.13;;;8.69;84.45
77207;BME280;66190;50.708;7.906;2023-04-19T02:25:55;97125.97;;;8.69;84.48
77207;BME280;66190;50.708;7.906;2023-04-19T02:28:20;97126.47;;;8.73;84.58
77207;BME280;66190;50.708;7.906;2023-04-19T02:30:46;97128.97;;;8.74;84.60
77207;BME280;66190;50.708;7.906;2023-04-19T02:33:11;97125.97;;;8.69;84.78
77207;BME280;66190;50.708;7.906;2023-04-19T02:35:37;97127.31;;;8.65;85.15
77207;BME280;66190;50.708;7.906;2023-04-19T02:38:03;97121.97;;;8.65;84.82
77207;BME280;66190;50.708;7.906;2023-04-19T02:40:29;97122.97;;;8.64;84.97
77207;BME280;66190;50.708;7.906;2023-04-19T02:42:54;97121.81;;;8.67;85.32
77207;BME280;66190;50.708;7.906;2023-04-19T02:45:20;97121.63;;;8.68;85.13
77207;BME280;66190;50.708;7.906;2023-04-19T02:47:45;97123.47;;;8.68;85.57
77207;BME280;66190;50.708;7.906;2023-04-19T02:50:11;97121.63;;;8.68;85.62
77207;BME280;66190;50.708;7.906;2023-04-19T02:52:37;97121.81;;;8.67;85.66
77207;BME280;66190;50.708;7.906;2023-04-19T02:55:04;97119.44;;;8.72;85.27
77207;BME280;66190;50.708;7.906;2023-04-19T02:57:30;97117.75;;;8.71;85.61
77207;BME280;66190;50.708;7.906;2023-04-19T02:59:56;97125.78;;;8.71;85.35
77207;BME280;66190;50.708;7.906;2023-04-19T03:02:21;97120.25;;;8.72;85.33
77207;BME280;66190;50.708;7.906;2023-04-19T03:04:46;97120.44;;;8.71;85.28
77207;BME280;66190;50.708;7.906;2023-04-19T03:07:12;97116.78;;;8.64;85.70
77207;BME280;66190;50.708;7.906;2023-04-19T03:09:38;97115.28;;;8.61;85.84
77207;BME280;66190;50.708;7.906;2023-04-19T03:12:05;97108.06;;;8.62;85.78
77207;BME280;66190;50.708;7.906;2023-04-19T03:14:31;97111.44;;;8.56;85.35
77207;BME280;66190;50.708;7.906;2023-04-19T03:16:58;97110.78;;;8.54;85.50
77207;BME280;66190;50.708;7.906;2023-04-19T03:19:23;97107.75;;;8.57;86.00
77207;BME280;66190;50.708;7.906;2023-04-19T03:21:48;97105.59;;;8.52;85.53
77207;BME280;66190;50.708;7.906;2023-04-19T03:24:14;97102.91;;;8.52;85.62
77207;BME280;66190;50.708;7.906;2023-04-19T03:26:39;97101.75;;;8.47;85.77
77207;BME280;66190;50.708;7.906;2023-04-19T03:29:05;97100.78;;;8.48;85.89
77207;BME280;66190;50.708;7.906;2023-04-19T03:31:30;97109.81;;;8.47;85.38
77207;BME280;66190;50.708;7.906;2023-04-19T03:33:56;97107.97;;;8.47;86.03
77207;BME280;66190;50.708;7.906;2023-04-19T03:36:21;97101.41;;;8.50;85.78
77207;BME280;66190;50.708;7.906;2023-04-19T03:38:47;97102.44;;;8.49;85.68
77207;BME280;66190;50.708;7.906;2023-04-19T03:41:23;97097.25;;;8.47;85.38
77207;BME280;66190;50.708;7.906;2023-04-19T03:43:49;97102.13;;;8.44;85.67
77207;BME280;66190;50.708;7.906;2023-04-19T03:46:48;97096.41;;;8.47;85.55
77207;BME280;66190;50.708;7.906;2023-04-19T03:49:13;97093.72;;;8.47;85.52
77207;BME280;66190;50.708;7.906;2023-04-19T03:51:39;97096.22;;;8.48;85.15
77207;BME280;66190;50.708;7.906;2023-04-19T03:54:04;97091.69;;;8.49;85.17
77207;BME280;66190;50.708;7.906;2023-04-19T03:56:30;97090.69;;;8.50;85.08
77207;BME280;66190;50.708;7.906;2023-04-19T03:58:55;97095.41;;;8.48;84.88
77207;BME280;66190;50.708;7.906;2023-04-19T04:01:21;97090.69;;;8.50;84.47
77207;BME280;66190;50.708;7.906;2023-04-19T04:03:46;97092.88;;;8.46;84.39
77207;BME280;66190;50.708;7.906;2023-04-19T04:06:12;97094.91;;;8.44;84.78
77207;BME280;66190;50.708;7.906;2023-04-19T04:08:37;97086.22;;;8.42;84.54
77207;BME280;66190;50.708;7.906;2023-04-19T04:11:04;97095.91;;;8.43;84.68
77207;BME280;66190;50.708;7.906;2023-04-19T04:13:29;97089.88;;;8.41;84.80
77207;BME280;66190;50.708;7.906;2023-04-19T04:15:55;97087.38;;;8.40;84.63
77207;BME280;66190;50.708;7.906;2023-04-19T04:18:20;97090.06;;;8.40;84.61
77207;BME280;66190;50.708;7.906;2023-04-19T04:20:46;97084.69;;;8.40;84.63
77207;BME280;66190;50.708;7.906;2023-04-19T04:23:11;97082.84;;;8.40;84.74
77207;BME280;66190;50.708;7.906;2023-04-19T04:25:38;97083.69;;;8.41;84.76
77207;BME280;66190;50.708;7.906;2023-04-19T04:28:04;97092.75;;;8.40;84.71
77207;BME280;66190;50.708;7.906;2023-04-19T04:30:29;97093.94;;;8.37;84.91
77207;BME280;66190;50.708;7.906;2023-04-19T04:32:55;97088.75;;;8.36;84.72
77207;BME280;66190;50.708;7.906;2023-04-19T04:35:22;97088.75;;;8.36;84.39
77207;BME280;66190;50.708;7.906;2023-04-19T04:37:48;97087.78;;;8.29;84.93
77207;BME280;66190;50.708;7.906;2023-04-19T04:40:13;97086.09;;;8.28;84.71
77207;BME280;66190;50.708;7.906;2023-04-19T04:42:40;97093.28;;;8.27;84.70
77207;BME280;66190;50.708;7.906;2023-04-19T04:45:05;97090.09;;;8.24;84.96
77207;BME280;66190;50.708;7.906;2023-04-19T04:47:32;97088.28;;;8.24;84.87
77207;BME280;66190;50.708;7.906;2023-04-19T04:50:01;97080.91;;;8.26;85.15
77207;BME280;66190;50.708;7.906;2023-04-19T04:52:27;97082.56;;;8.27;84.69
77207;BME280;66190;50.708;7.906;2023-04-19T04:54:52;97082.22;;;8.30;84.89
77207;BME280;66190;50.708;7.906;2023-04-19T04:57:18;97079.88;;;8.27;85.03
77207;BME280;66190;50.708;7.906;2023-04-19T04:59:43;97077.06;;;8.29;84.84
77207;BME280;66190;50.708;7.906;2023-04-19T05:02:09;97091.25;;;8.29;84.79
77207;BME280;66190;50.708;7.906;2023-04-19T05:04:35;97085.91;;;8.29;84.77
77207;BME280;66190;50.708;7.906;2023-04-19T05:07:00;97084.91;;;8.30;84.90
77207;BME280;66190;50.708;7.906;2023-04-19T05:09:25;97084.91;;;8.30;84.62
77207;BME280;66190;50.708;7.906;2023-04-19T05:11:51;97083.88;;;8.31;84.79
77207;BME280;66190;50.708;7.906;2023-04-19T05:14:16;97078.19;;;8.34;84.01
77207;BME280;66190;50.708;7.906;2023-04-19T05:16:42;97084.75;;;8.32;83.97
77207;BME280;66190;50.708;7.906;2023-04-19T05:19:07;97087.25;;;8.33;83.95
77207;BME280;66190;50.708;7.906;2023-04-19T05:21:33;97073.00;;;8.33;83.85
77207;BME280;66190;50.708;7.906;2023-04-19T05:23:58;97076.34;;;8.35;83.87
77207;BME280;66190;50.708;7.906;2023-04-19T05:26:24;97080.72;;;8.36;83.63
77207;BME280;66190;50.708;7.906;2023-04-19T05:28:49;97084.03;;;8.38;83.52
77207;BME280;66190;50.708;7.906;2023-04-19T05:31:15;97077.00;;;8.37;83.49
77207;BME280;66190;50.708;7.906;2023-04-19T05:33:40;97075.47;;;8.42;83.40
77207;BME280;66190;50.708;7.906;2023-04-19T05:36:06;97071.94;;;8.42;83.57
77207;BME280;66190;50.708;7.906;2023-04-19T05:38:32;97070.78;;;8.44;83.37
77207;BME280;66190;50.708;7.906;2023-04-19T05:40:57;97070.44;;;8.47;83.42
77207;BME280;66190;50.708;7.906;2023-04-19T05:43:23;97076.09;;;8.52;83.56
77207;BME280;66190;50.708;7.906;2023-04-19T05:45:48;97072.41;;;8.53;83.06
77207;BME280;66190;50.708;7.906;2023-04-19T05:48:13;97069.56;;;8.55;82.67
77207;BME280;66190;50.708;7.906;2023-04-19T05:50:39;97072.19;;;8.63;82.28
77207;BME280;66190;50.708;7.906;2023-04-19T05:53:04;97064.63;;;8.66;82.04
77207;BME280;66190;50.708;7.906;2023-04-19T05:55:30;97066.44;;;8.74;81.80
77207;BME280;66190;50.708;7.906;2023-04-19T05:57:57;97072.28;;;8.77;80.60
77207;BME280;66190;50.708;7.906;2023-04-19T06:00:22;97078.44;;;8.86;80.28
77207;BME280;66190;50.708;7.906;2023-04-19T06:02:48;97071.03;;;8.88;79.60
77207;BME280;66190;50.708;7.906;2023-04-19T06:05:13;97070.50;;;8.92;79.13
77207;BME280;66190;50.708;7.906;2023-04-19T06:07:39;97076.25;;;8.89;78.61
77207;BME280;66190;50.708;7.906;2023-04-19T06:10:05;97071.75;;;8.82;78.63
77207;BME280;66190;50.708;7.906;2023-04-19T06:12:30;97072.25;;;8.85;78.06
77207;BME280;66190;50.708;7.906;2023-04-19T06:14:56;97072.72;;;8.89;77.53
77207;BME280;66190;50.708;7.906;2023-04-19T06:17:21;97073.19;;;8.92;77.50
77207;BME280;66190;50.708;7.906;2023-04-19T06:19:50;97069.00;;;8.90;76.84
77207;BME280;66190;50.708;7.906;2023-04-19T06:22:15;97066.13;;;8.91;76.92
77207;BME280;66190;50.708;7.906;2023-04-19T06:24:43;97068.31;;;8.96;75.90
77207;BME280;66190;50.708;7.906;2023-04-19T06:27:09;97066.78;;;9.01;75.70
77207;BME280;66190;50.708;7.906;2023-04-19T06:29:34;97060.75;;;8.99;75.48
77207;BME280;66190;50.708;7.906;2023-04-19T06:31:59;97068.72;;;9.07;75.44
77207;BME280;66190;50.708;7.906;2023-04-19T06:34:25;97072.25;;;9.08;75.69
77207;BME280;66190;50.708;7.906;2023-04-19T06:36:50;97068.84;;;9.14;75.30
77207;BME280;66190;50.708;7.906;2023-04-19T06:39:16;97061.81;;;9.13;75.32
77207;BME280;66190;50.708;7.906;2023-04-19T06:41:42;97061.16;;;9.11;75.72
77207;BME280;66190;50.708;7.906;2023-04-19T06:44:07;97067.84;;;9.15;75.51
77207;BME280;66190;50.708;7.906;2023-04-19T06:46:32;97066.03;;;9.07;75.63
77207;BME280;66190;50.708;7.906;2023-04-19T06:48:58;97058.16;;;9.06;74.92
77207;BME280;66190;50.708;7.906;2023-04-19T06:51:23;97054.94;;;9.10;75.61
77207;BME280;66190;50.708;7.906;2023-04-19T06:53:49;97054.47;;;9.07;74.79
77207;BME280;66190;50.708;7.906;2023-04-19T06:56:15;97053.16;;;9.03;74.75
77207;BME280;66190;50.708;7.906;2023-04-19T06:58:40;97050.78;;;9.08;75.34
77207;BME280;66190;50.708;7.906;2023-04-19T07:01:06;97053.34;;;9.01;74.71
77207;BME280;66190;50.708;7.906;2023-04-19T07:03:32;97055.25;;;8.93;74.37
77207;BME280;66190;50.708;7.906;2023-04-19T07:05:57;97047.78;;;8.80;74.78
77207;BME280;66190;50.708;7.906;2023-04-19T07:08:23;97044.13;;;8.73;75.20
77207;BME280;66190;50.708;7.906;2023-04-19T07:10:49;97046.81;;;8.73;75.32
77207;BME280;66190;50.708;7.906;2023-04-19T07:13:14;97044.31;;;8.72;75.30
77207;BME280;66190;50.708;7.906;2023-04-19T07:15:40;97040.25;;;8.76;75.66
77207;BME280;66190;50.708;7.906;2023-04-19T07:18:05;97042.59;;;8.79;75.85
77207;BME280;66190;50.708;7.906;2023-04-19T07:20:31;97036.69;;;8.83;76.06
77207;BME280;66190;50.708;7.906;2023-04-19T07:22:57;97042.16;;;8.90;75.84
77207;BME280;66190;50.708;7.906;2023-04-19T07:25:23;97040.13;;;9.00;75.78
77207;BME280;66190;50.708;7.906;2023-04-19T07:27:48;97036.50;;;9.07;74.91
77207;BME280;66190;50.708;7.906;2023-04-19T07:30:14;97024.53;;;9.18;74.59
77207;BME280;66190;50.708;7.906;2023-04-19T07:32:39;97030.28;;;9.30;74.28
77207;BME280;66190;50.708;7.906;2023-04-19T07:35:05;97029.63;;;9.50;74.86
77207;BME280;66190;50.708;7.906;2023-04-19T07:37:31;97029.81;;;9.63;73.02
77207;BME280;66190;50.708;7.906;2023-04-19T07:39:56;97036.88;;;9.79;72.78
77207;BME280;66190;50.708;7.906;2023-04-19T07:42:23;97031.53;;;9.79;70.99
77207;BME280;66190;50.708;7.906;2023-04-19T07:44:48;97033.03;;;9.81;69.77
77207;BME280;66190;50.708;7.906;2023-04-19T07:47:14;97020.22;;;9.69;69.25
77207;BME280;66190;50.708;7.906;2023-04-19T07:49:39;97026.94;;;9.65;70.38
77207;BME280;66190;50.708;7.906;2023-04-19T07:52:07;97015.94;;;9.60;69.39
77207;BME280;66190;50.708;7.906;2023-04-19T07:54:33;97016.59;;;9.62;70.74
77207;BME280;66190;50.708;7.906;2023-04-19T07:56:58;97015.13;;;9.74;71.51
77207;BME280;66190;50.708;7.906;2023-04-19T07:59:24;97018.25;;;9.77;71.26
77207;BME280;66190;50.708;7.906;2023-04-19T08:01:49;97007.41;;;9.85;70.69
77207;BME280;66190;50.708;7.906;2023-04-19T08:04:15;97010.38;;;9.90;69.56
77207;BME280;66190;50.708;7.906;2023-04-19T08:06:44;97018.34;;;9.84;69.06
77207;BME280;66190;50.708;7.906;2023-04-19T08:09:09;97020.41;;;9.96;69.11
77207;BME280;66190;50.708;7.906;2023-04-19T08:11:35;97014.59;;;10.07;68.86
77207;BME280;66190;50.708;7.906;2023-04-19T08:14:00;97016.00;;;10.18;69.83
77207;BME280;66190;50.708;7.906;2023-04-19T08:16:26;97015.25;;;10.24;68.54
77207;BME280;66190;50.708;7.906;2023-04-19T08:18:52;97020.81;;;10.22;66.61
77207;BME280;66190;50.708;7.906;2023-04-19T08:21:17;97021.38;;;10.18;66.55
77207;BME280;66190;50.708;7.906;2023-04-19T08:23:43;97027.09;;;10.15;67.08
77207;BME280;66190;50.708;7.906;2023-04-19T08:26:08;97021.28;;;10.26;67.60
77207;BME280;66190;50.708;7.906;2023-04-19T08:28:34;97034.81;;;10.32;67.00
77207;BME280;66190;50.708;7.906;2023-04-19T08:30:59;97035.44;;;10.35;65.00
77207;BME280;66190;50.708;7.906;2023-04-19T08:33:25;97045.84;;;10.38;65.54
77207;BME280;66190;50.708;7.906;2023-04-19T08:35:50;97039.34;;;10.32;64.34
77207;BME280;66190;50.708;7.906;2023-04-19T08:38:15;97050.19;;;10.39;65.30
77207;BME280;66190;50.708;7.906;2023-04-19T08:40:51;97042.41;;;10.29;64.39
77207;BME280;66190;50.708;7.906;2023-04-19T08:43:18;97039.34;;;10.32;64.13
77207;BME280;66190;50.708;7.906;2023-04-19T08:45:47;97045.66;;;10.24;65.19
77207;BME280;66190;50.708;7.906;2023-04-19T08:48:15;97043.81;;;10.25;65.27
77207;BME280;66190;50.708;7.906;2023-04-19T08:50:41;97046.78;;;10.30;64.37
77207;BME280;66190;50.708;7.906;2023-04-19T08:53:08;97036.38;;;10.27;62.84
77207;BME280;66190;50.708;7.906;2023-04-19T08:55:34;97033.22;;;10.53;65.11
77207;BME280;66190;50.708;7.906;2023-04-19T08:58:02;97032.88;;;10.77;64.81
77207;BME280;66190;50.708;7.906;2023-04-19T09:00:28;97037.84;;;10.94;63.82
77207;BME280;66190;50.708;7.906;2023-04-19T09:02:53;97036.56;;;11.11;63.20
77207;BME280;66190;50.708;7.906;2023-04-19T09:05:20;97034.06;;;11.31;64.47
77207;BME280;66190;50.708;7.906;2023-04-19T09:07:46;97030.28;;;11.47;61.98
77207;BME280;66190;50.708;7.906;2023-04-19T09:10:21;97036.22;;;11.42;60.84
77207;BME280;66190;50.708;7.906;2023-04-19T09:13:02;97021.16;;;11.26;58.68
77207;BME280;66190;50.708;7.906;2023-04-19T09:15:38;97026.75;;;11.25;60.38
77207;BME280;66190;50.708;7.906;2023-04-19T09:18:06;97020.31;;;11.26;60.99
77207;BME280;66190;50.708;7.906;2023-04-19T09:20:41;97008.78;;;11.53;60.51
77207;BME280;66190;50.708;7.906;2023-04-19T09:23:10;97020.72;;;11.65;59.62
77207;BME280;66190;50.708;7.906;2023-04-19T09:25:37;97004.44;;;11.80;61.37
77207;BME280;66190;50.708;7.906;2023-04-19T09:28:12;97008.13;;;11.72;55.98
77207;BME280;66190;50.708;7.906;2023-04-19T09:30:38;96998.78;;;11.75;55.62
77207;BME280;66190;50.708;7.906;2023-04-19T09:33:04;96999.19;;;11.72;55.31
77207;BME280;66190;50.708;7.906;2023-04-19T09:35:39;97005.19;;;11.67;55.45
77207;BME280;66190;50.708;7.906;2023-04-19T09:38:05;96999.09;;;11.59;53.79
77207;BME280;66190;50.708;7.906;2023-04-19T09:40:31;96997.59;;;11.77;56.58
77207;BME280;66190;50.708;7.906;2023-04-19T09:42:56;96991.06;;;11.93;55.38
77207;BME280;66190;50.708;7.906;2023-04-19T09:45:22;96984.97;;;11.84;54.19
77207;BME280;66190;50.708;7.906;2023-04-19T09:48:04;96983.22;;;12.04;52.94
77207;BME280;66190;50.708;7.906;2023-04-19T09:50:31;96981.16;;;12.06;51.77
77207;BME280;66190;50.708;7.906;2023-04-19T09:52:59;96989.97;;;12.21;53.49
77207;BME280;66190;50.708;7.906;2023-04-19T09:55:25;96979.97;;;12.15;52.47
77207;BME280;66190;50.708;7.906;2023-04-19T09:57:51;96975.78;;;12.13;53.27
77207;BME280;66190;50.708;7.906;2023-04-19T10:00:17;96972.97;;;12.27;53.61
77207;BME280;66190;50.708;7.906;2023-04-19T10:02:43;96963.28;;;12.46;53.06
77207;BME280;66190;50.708;7.906;2023-04-19T10:05:11;96968.31;;;12.49;51.89
77207;BME280;66190;50.708;7.906;2023-04-19T10:07:39;96968.13;;;12.64;51.60
77207;BME280;66190;50.708;7.906;2023-04-19T10:10:06;96961.53;;;12.79;50.83
77207;BME280;66190;50.708;7.906;2023-04-19T10:12:32;96958.63;;;12.81;48.59
77207;BME280;66190;50.708;7.906;2023-04-19T10:14:57;96957.63;;;12.88;50.64
77207;BME280;66190;50.708;7.906;2023-04-19T10:17:23;96966.59;;;13.02;51.03
77207;BME280;66190;50.708;7.906;2023-04-19T10:19:55;96951.84;;;12.98;49.52
77207;BME280;66190;50.708;7.906;2023-04-19T10:22:22;96963.84;;;12.89;49.52
77207;BME280;66190;50.708;7.906;2023-04-19T10:25:07;96961.75;;;12.84;49.05
77207;BME280;66190;50.708;7.906;2023-04-19T10:27:33;96960.53;;;13.00;50.98
77207;BME280;66190;50.708;7.906;2023-04-19T10:30:00;96949.38;;;13.22;49.05
77207;BME280;66190;50.708;7.906;2023-04-19T10:32:51;96951.66;;;13.45;47.88
77207;BME280;66190;50.708;7.906;2023-04-19T10:35:19;96946.06;;;13.59;47.16
77207;BME280;66190;50.708;7.906;2023-04-19T10:43:17;96943.34;;;13.27;40.92
77207;BME280;66190;50.708;7.906;2023-04-19T10:45:43;96954.38;;;13.25;41.15
77207;BME280;66190;50.708;7.906;2023-04-19T10:53:43;96935.03;;;13.48;40.17
77207;BME280;66190;50.708;7.906;2023-04-19T10:56:08;96936.69;;;13.16;39.26
77207;BME280;66190;50.708;7.906;2023-04-19T11:04:07;96932.31;;;13.61;44.37
77207;BME280;66190;50.708;7.906;2023-04-19T11:06:32;96933.16;;;13.55;41.73
77207;BME280;66190;50.708;7.906;2023-04-19T11:08:58;96932.94;;;13.43;39.40
77207;BME280;66190;50.708;7.906;2023-04-19T11:11:25;96919.66;;;13.42;40.93
77207;BME280;66190;50.708;7.906;2023-04-19T11:13:53;96926.31;;;13.46;41.15
77207;BME280;66190;50.708;7.906;2023-04-19T11:16:19;96915.06;;;13.23;39.17
77207;BME280;66190;50.708;7.906;2023-04-19T11:18:45;96906.97;;;13.16;40.69
77207;BME280;66190;50.708;7.906;2023-04-19T11:21:13;96903.63;;;13.47;40.92
77207;BME280;66190;50.708;7.906;2023-04-19T11:23:41;96907.13;;;13.80;43.46
77207;BME280;66190;50.708;7.906;2023-04-19T11:26:10;96906.00;;;14.01;39.05
77207;BME280;66190;50.708;7.906;2023-04-19T11:28:37;96905.59;;;13.97;38.09
77207;BME280;66190;50.708;7.906;2023-04-19T11:31:03;96891.06;;;13.98;38.66
77207;BME280;66190;50.708;7.906;2023-04-19T11:33:35;96894.94;;;14.15;36.57
77207;BME280;66190;50.708;7.906;2023-04-19T11:36:01;96899.38;;;13.90;35.25
77207;BME280;66190;50.708;7.906;2023-04-19T11:38:28;96892.88;;;14.04;38.17
77207;BME280;66190;50.708;7.906;2023-04-19T11:40:58;96892.41;;;14.20;37.32
77207;BME280;66190;50.708;7.906;2023-04-19T11:43:34;96888.66;;;14.34;36.34
77207;BME280;66190;50.708;7.906;2023-04-19T11:46:12;96886.88;;;14.53;38.73
77207;BME280;66190;50.708;7.906;2023-04-19T11:48:48;96890.59;;;14.58;41.70
77207;BME280;66190;50.708;7.906;2023-04-19T11:51:15;96885.78;;;14.60;40.17
77207;BME280;66190;50.708;7.906;2023-04-19T11:53:40;96881.72;;;14.45;37.05
77207;BME280;66190;50.708;7.906;2023-04-19T11:56:07;96875.16;;;14.15;36.92
77207;BME280;66190;50.708;7.906;2023-04-19T11:58:45;96876.50;;;13.93;38.92
77207;BME280;66190;50.708;7.906;2023-04-19T12:01:14;96865.59;;;14.12;41.92
77207;BME280;66190;50.708;7.906;2023-04-19T12:03:47;96869.75;;;14.15;38.24
77207;BME280;66190;50.708;7.906;2023-04-19T12:08:50;96864.28;;;14.34;39.82
77207;BME280;66190;50.708;7.906;2023-04-19T12:11:18;96860.13;;;14.32;36.36
77207;BME280;66190;50.708;7.906;2023-04-19T12:13:44;96855.97;;;14.29;35.88
77207;BME280;66190;50.708;7.906;2023-04-19T12:16:10;96865.97;;;14.22;36.80
77207;BME280;66190;50.708;7.906;2023-04-19T12:18:49;96856.16;;;14.34;39.32
77207;BME280;66190;50.708;7.906;2023-04-19T12:23:52;96853.28;;;14.23;38.57
77207;BME280;66190;50.708;7.906;2023-04-19T12:26:18;96847.84;;;14.29;38.17
77207;BME280;66190;50.708;7.906;2023-04-19T12:28:43;96860.00;;;14.07;35.99
77207;BME280;66190;50.708;7.906;2023-04-19T12:31:09;96852.88;;;14.13;37.83
77207;BME280;66190;50.708;7.906;2023-04-19T12:33:34;96844.50;;;14.34;39.75
77207;BME280;66190;50.708;7.906;2023-04-19T12:36:00;96844.66;;;14.45;38.69
77207;BME280;66190;50.708;7.906;2023-04-19T12:38:25;96836.25;;;14.53;38.23
77207;BME280;66190;50.708;7.906;2023-04-19T12:40:50;96845.22;;;14.54;37.45
77207;BME280;66190;50.708;7.906;2023-04-19T12:43:16;96847.06;;;14.16;34.95
77207;BME280;66190;50.708;7.906;2023-04-19T12:45:41;96839.53;;;14.24;36.42
77207;BME280;66190;50.708;7.906;2023-04-19T12:48:06;96830.09;;;14.40;34.78
77207;BME280;66190;50.708;7.906;2023-04-19T12:50:32;96834.22;;;14.42;37.97
77207;BME280;66190;50.708;7.906;2023-04-19T12:52:57;96835.19;;;14.17;33.50
77207;BME280;66190;50.708;7.906;2023-04-19T12:55:23;96827.53;;;14.51;36.90
77207;BME280;66190;50.708;7.906;2023-04-19T12:57:48;96825.13;;;14.68;38.35
77207;BME280;66190;50.708;7.906;2023-04-19T13:00:14;96811.53;;;14.74;34.48
77207;BME280;66190;50.708;7.906;2023-04-19T13:02:39;96815.09;;;14.75;33.86
77207;BME280;66190;50.708;7.906;2023-04-19T13:05:05;96812.91;;;14.59;32.75
77207;BME280;66190;50.708;7.906;2023-04-19T13:07:31;96813.78;;;14.77;35.06
77207;BME280;66190;50.708;7.906;2023-04-19T13:09:56;96817.50;;;14.83;33.61
77207;BME280;66190;50.708;7.906;2023-04-19T13:12:22;96820.72;;;14.98;36.75
77207;BME280;66190;50.708;7.906;2023-04-19T13:14:48;96808.56;;;15.07;36.05
77207;BME280;66190;50.708;7.906;2023-04-19T13:17:16;96809.38;;;15.08;34.07
77207;BME280;66190;50.708;7.906;2023-04-19T13:19:41;96805.22;;;14.80;32.91
77207;BME280;66190;50.708;7.906;2023-04-19T13:22:07;96806.00;;;14.88;33.49
77207;BME280;66190;50.708;7.906;2023-04-19T13:24:32;96802.50;;;15.05;36.51